createdAt,value
2022-10-23T00:00:32.718Z,26.80
2022-10-23T00:01:32.669Z,28.00
2022-10-23T00:02:32.753Z,30.60
2022-10-23T00:03:32.636Z,30.00
2022-10-23T00:04:32.621Z,28.40
2022-10-23T00:05:33.617Z,25.70
2022-10-23T00:06:32.617Z,23.00
2022-10-23T00:07:32.598Z,37.40
2022-10-23T00:08:32.582Z,22.20
2022-10-23T00:09:32.573Z,34.40
2022-10-23T00:10:32.563Z,28.30
2022-10-23T00:11:32.560Z,19.90
2022-10-23T00:12:32.544Z,22.30
2022-10-23T00:13:32.535Z,19.30
2022-10-23T00:14:32.522Z,31.80
2022-10-23T00:15:32.516Z,22.80
2022-10-23T00:16:32.520Z,25.00
2022-10-23T00:17:32.496Z,27.60
2022-10-23T00:18:32.483Z,28.00
2022-10-23T00:19:32.477Z,29.50
2022-10-23T00:20:32.467Z,29.10
2022-10-23T00:21:32.472Z,23.20
2022-10-23T00:22:32.444Z,27.60
2022-10-23T00:23:32.466Z,27.90
2022-10-23T00:24:32.424Z,29.10
2022-10-23T00:25:32.417Z,25.20
2022-10-23T00:26:32.413Z,23.80
2022-10-23T00:27:32.395Z,30.60
2022-10-23T00:28:32.385Z,17.90
2022-10-23T00:29:32.371Z,22.30
2022-10-23T00:30:32.361Z,23.60
2022-10-23T00:31:32.364Z,26.90
2022-10-23T00:33:33.333Z,28.40
2022-10-23T00:34:32.321Z,32.70
2022-10-23T00:35:32.315Z,40.20
2022-10-23T00:36:32.306Z,29.30
2022-10-23T00:37:32.288Z,28.60
2022-10-23T00:38:32.282Z,33.10
2022-10-23T00:39:32.286Z,33.60
2022-10-23T00:40:32.269Z,33.30
2022-10-23T00:41:32.266Z,32.90
2022-10-23T00:42:32.239Z,31.70
2022-10-23T00:43:32.226Z,36.20
2022-10-23T00:44:32.217Z,29.20
2022-10-23T00:45:32.212Z,32.80
2022-10-23T00:46:32.195Z,27.40
2022-10-23T00:47:32.192Z,34.30
2022-10-23T00:48:32.175Z,37.20
2022-10-23T00:49:33.613Z,30.30
2022-10-23T00:50:32.167Z,34.30
2022-10-23T00:51:32.151Z,26.70
2022-10-23T00:52:32.137Z,28.80
2022-10-23T00:53:32.127Z,33.70
2022-10-23T00:54:32.117Z,30.60
2022-10-23T00:55:32.117Z,32.60
2022-10-23T00:56:32.092Z,34.40
2022-10-23T00:57:32.087Z,30.70
2022-10-23T00:58:32.077Z,33.70
2022-10-23T00:59:32.065Z,23.10
2022-10-23T01:00:32.075Z,30.80
2022-10-23T01:01:32.247Z,35.70
2022-10-23T01:02:32.096Z,35.70
2022-10-23T01:03:32.024Z,31.10
2022-10-23T01:04:32.012Z,34.10
2022-10-23T01:05:32.017Z,35.00
2022-10-23T01:06:31.993Z,35.90
2022-10-23T01:07:31.982Z,36.70
2022-10-23T01:08:31.970Z,25.50
2022-10-23T01:09:32.030Z,36.50
2022-10-23T01:10:31.961Z,32.30
2022-10-23T01:11:31.942Z,37.90
2022-10-23T01:12:31.932Z,28.90
2022-10-23T01:13:31.922Z,29.30
2022-10-23T01:14:31.910Z,30.00
2022-10-23T01:15:31.911Z,35.30
2022-10-23T01:16:31.899Z,41.90
2022-10-23T01:17:32.884Z,37.70
2022-10-23T01:18:31.872Z,26.80
2022-10-23T01:19:31.863Z,28.00
2022-10-23T01:20:31.865Z,27.10
2022-10-23T01:21:31.841Z,26.60
2022-10-23T01:22:31.833Z,26.80
2022-10-23T01:23:31.822Z,28.00
2022-10-23T01:24:31.810Z,33.10
2022-10-23T01:25:31.792Z,34.60
2022-10-23T01:26:31.798Z,32.30
2022-10-23T01:27:31.779Z,33.90
2022-10-23T01:28:31.766Z,32.40
2022-10-23T01:29:31.757Z,31.00
2022-10-23T01:30:31.899Z,23.10
2022-10-23T01:31:31.745Z,29.80
2022-10-23T01:32:31.723Z,22.30
2022-10-23T01:33:31.713Z,30.50
2022-10-23T01:34:31.706Z,29.70
2022-10-23T01:35:31.697Z,30.40
2022-10-23T01:36:31.691Z,30.80
2022-10-23T01:37:31.671Z,27.40
2022-10-23T01:38:31.665Z,27.20
2022-10-23T01:39:31.643Z,29.60
2022-10-23T01:40:32.641Z,33.30
2022-10-23T01:41:31.643Z,25.40
2022-10-23T01:42:31.624Z,36.50
2022-10-23T01:43:31.616Z,27.90
2022-10-23T01:44:31.598Z,25.00
2022-10-23T01:45:31.590Z,39.80
2022-10-23T01:46:31.593Z,31.70
2022-10-23T01:47:31.572Z,27.10
2022-10-23T01:48:31.560Z,31.40
2022-10-23T01:49:31.548Z,29.00
2022-10-23T01:50:31.543Z,36.40
2022-10-23T01:51:31.541Z,34.70
2022-10-23T01:52:31.524Z,34.00
2022-10-23T01:53:31.508Z,30.20
2022-10-23T01:54:31.504Z,23.90
2022-10-23T01:55:31.574Z,26.40
2022-10-23T01:56:31.493Z,38.30
2022-10-23T01:57:31.469Z,34.50
2022-10-23T01:58:31.459Z,23.40
2022-10-23T01:59:31.450Z,32.50
2022-10-23T02:00:31.441Z,31.00
2022-10-23T02:01:31.588Z,31.60
2022-10-23T02:02:31.480Z,30.80
2022-10-23T02:03:31.413Z,32.20
2022-10-23T02:04:31.405Z,31.70
2022-10-23T02:05:31.390Z,30.00
2022-10-23T02:06:31.395Z,33.40
2022-10-23T02:07:31.373Z,26.20
2022-10-23T02:08:31.365Z,38.00
2022-10-23T02:09:31.354Z,32.90
2022-10-23T02:10:31.345Z,30.40
2022-10-23T02:11:31.344Z,31.10
2022-10-23T02:12:31.325Z,33.50
2022-10-23T02:13:31.316Z,34.00
2022-10-23T02:14:31.307Z,31.40
2022-10-23T02:15:31.296Z,38.20
2022-10-23T02:16:31.300Z,30.60
2022-10-23T02:17:31.368Z,44.50
2022-10-23T02:18:31.264Z,38.10
2022-10-23T02:19:31.254Z,27.10
2022-10-23T02:20:31.293Z,37.00
2022-10-23T02:21:31.251Z,40.60
2022-10-23T02:22:31.225Z,34.90
2022-10-23T02:23:31.212Z,27.40
2022-10-23T02:24:31.200Z,36.70
2022-10-23T02:25:31.194Z,35.50
2022-10-23T02:26:31.193Z,42.90
2022-10-23T02:27:31.170Z,30.40
2022-10-23T02:28:31.161Z,29.50
2022-10-23T02:29:31.149Z,28.10
2022-10-23T02:30:31.151Z,34.80
2022-10-23T02:31:31.138Z,37.40
2022-10-23T02:32:31.118Z,38.40
2022-10-23T02:33:31.110Z,29.60
2022-10-23T02:34:31.097Z,24.50
2022-10-23T02:35:31.096Z,30.70
2022-10-23T02:36:31.074Z,28.60
2022-10-23T02:37:31.061Z,31.20
2022-10-23T02:38:31.055Z,36.70
2022-10-23T02:39:31.056Z,34.60
2022-10-23T02:40:31.060Z,23.80
2022-10-23T02:41:31.027Z,35.00
2022-10-23T02:42:31.019Z,34.20
2022-10-23T02:43:31.004Z,29.50
2022-10-23T02:44:30.996Z,31.50
2022-10-23T02:45:31.047Z,26.20
2022-10-23T02:46:30.976Z,30.80
2022-10-23T02:47:30.968Z,29.50
2022-10-23T02:48:30.955Z,33.20
2022-10-23T02:49:30.946Z,39.00
2022-10-23T02:50:30.938Z,29.00
2022-10-23T02:51:30.936Z,37.30
2022-10-23T02:52:30.921Z,30.60
2022-10-23T02:53:30.906Z,36.60
2022-10-23T02:54:30.898Z,35.10
2022-10-23T02:55:30.903Z,31.20
2022-10-23T02:56:32.657Z,34.10
2022-10-23T02:57:30.868Z,27.90
2022-10-23T02:58:30.863Z,29.40
2022-10-23T02:59:30.844Z,36.00
2022-10-23T03:00:30.836Z,34.90
2022-10-23T03:01:30.957Z,29.40
2022-10-23T03:03:30.809Z,38.50
2022-10-23T03:04:30.798Z,35.50
2022-10-23T03:05:30.797Z,34.20
2022-10-23T03:06:30.782Z,39.30
2022-10-23T03:07:30.767Z,36.90
2022-10-23T03:08:30.757Z,30.20
2022-10-23T03:09:30.746Z,26.90
2022-10-23T03:10:30.739Z,38.00
2022-10-23T03:11:30.735Z,34.40
2022-10-23T03:12:30.718Z,32.30
2022-10-23T03:13:30.709Z,35.60
2022-10-23T03:14:30.698Z,34.10
2022-10-23T03:15:30.696Z,40.10
2022-10-23T03:16:30.697Z,38.90
2022-10-23T03:17:30.667Z,29.80
2022-10-23T03:18:30.659Z,31.30
2022-10-23T03:19:30.646Z,29.70
2022-10-23T03:20:30.640Z,39.00
2022-10-23T03:21:30.644Z,34.90
2022-10-23T03:22:30.619Z,35.20
2022-10-23T03:23:30.612Z,36.10
2022-10-23T03:24:30.602Z,37.80
2022-10-23T03:25:30.584Z,29.50
2022-10-23T03:26:30.585Z,31.40
2022-10-23T03:27:30.567Z,33.70
2022-10-23T03:28:30.554Z,31.20
2022-10-23T03:29:30.544Z,33.20
2022-10-23T03:30:30.534Z,26.90
2022-10-23T03:31:30.543Z,32.80
2022-10-23T03:32:30.516Z,26.70
2022-10-23T03:33:30.507Z,42.80
2022-10-23T03:34:30.492Z,29.60
2022-10-23T03:35:30.483Z,26.70
2022-10-23T03:36:30.480Z,28.60
2022-10-23T03:37:30.474Z,36.20
2022-10-23T03:38:30.450Z,29.50
2022-10-23T03:39:30.434Z,27.80
2022-10-23T03:40:30.425Z,39.80
2022-10-23T03:41:30.435Z,32.80
2022-10-23T03:42:30.426Z,31.00
2022-10-23T03:43:30.398Z,34.00
2022-10-23T03:44:30.389Z,32.00
2022-10-23T03:45:30.375Z,31.40
2022-10-23T03:46:30.376Z,32.90
2022-10-23T03:47:30.350Z,35.60
2022-10-23T03:48:30.342Z,32.00
2022-10-23T03:49:30.330Z,29.80
2022-10-23T03:50:30.323Z,30.70
2022-10-23T03:51:30.333Z,33.50
2022-10-23T03:52:30.308Z,32.20
2022-10-23T03:53:30.291Z,31.60
2022-10-23T03:54:30.282Z,26.90
2022-10-23T03:55:30.269Z,39.90
2022-10-23T03:56:30.271Z,31.80
2022-10-23T03:57:30.243Z,27.20
2022-10-23T03:58:30.235Z,30.30
2022-10-23T03:59:30.225Z,28.70
2022-10-23T04:00:30.317Z,31.10
2022-10-23T04:01:30.316Z,29.10
2022-10-23T04:02:30.265Z,27.80
2022-10-23T04:03:30.179Z,24.50
2022-10-23T04:04:31.176Z,41.30
2022-10-23T04:05:30.184Z,31.90
2022-10-23T04:06:30.152Z,39.80
2022-10-23T04:07:30.151Z,39.10
2022-10-23T04:08:30.135Z,27.30
2022-10-23T04:09:30.126Z,36.50
2022-10-23T04:10:30.129Z,29.10
2022-10-23T04:11:30.107Z,31.60
2022-10-23T04:12:30.098Z,37.30
2022-10-23T04:13:30.081Z,30.60
2022-10-23T04:14:30.074Z,27.70
2022-10-23T04:15:30.073Z,28.90
2022-10-23T04:16:30.050Z,34.10
2022-10-23T04:17:30.053Z,22.70
2022-10-23T04:18:30.032Z,28.10
2022-10-23T04:19:30.025Z,34.50
2022-10-23T04:20:30.023Z,31.80
2022-10-23T04:21:29.999Z,28.40
2022-10-23T04:22:29.994Z,29.00
2022-10-23T04:23:29.977Z,29.70
2022-10-23T04:24:29.966Z,28.50
2022-10-23T04:25:29.967Z,28.60
2022-10-23T04:26:29.949Z,27.90
2022-10-23T04:27:29.935Z,28.80
2022-10-23T04:28:29.931Z,34.50
2022-10-23T04:29:29.912Z,30.60
2022-10-23T04:30:29.916Z,28.40
2022-10-23T04:31:29.894Z,29.60
2022-10-23T04:32:29.882Z,26.70
2022-10-23T04:33:29.874Z,30.80
2022-10-23T04:34:29.864Z,24.90
2022-10-23T04:35:29.874Z,35.90
2022-10-23T04:36:29.849Z,24.30
2022-10-23T04:37:29.835Z,28.90
2022-10-23T04:38:29.827Z,24.70
2022-10-23T04:39:29.817Z,28.60
2022-10-23T04:40:29.815Z,29.30
2022-10-23T04:41:29.789Z,30.80
2022-10-23T04:42:29.801Z,24.70
2022-10-23T04:43:29.792Z,26.70
2022-10-23T04:44:29.770Z,25.50
2022-10-23T04:45:29.757Z,26.30
2022-10-23T04:46:29.759Z,19.70
2022-10-23T04:47:29.736Z,24.60
2022-10-23T04:48:29.727Z,28.10
2022-10-23T04:49:29.721Z,22.00
2022-10-23T04:50:29.704Z,30.90
2022-10-23T04:51:29.709Z,23.40
2022-10-23T04:52:29.686Z,26.80
2022-10-23T04:53:29.668Z,18.90
2022-10-23T04:54:29.664Z,25.90
2022-10-23T04:55:29.652Z,25.90
2022-10-23T04:56:29.650Z,26.70
2022-10-23T04:57:29.631Z,24.30
2022-10-23T04:58:29.626Z,25.70
2022-10-23T04:59:29.606Z,23.70
2022-10-23T05:00:29.696Z,23.90
2022-10-23T05:01:29.761Z,20.20
2022-10-23T05:02:29.576Z,29.10
2022-10-23T05:03:29.566Z,24.50
2022-10-23T05:04:29.556Z,25.00
2022-10-23T05:05:29.546Z,19.60
2022-10-23T05:06:29.546Z,21.90
2022-10-23T05:07:29.529Z,24.50
2022-10-23T05:08:29.514Z,26.40
2022-10-23T05:09:29.505Z,31.20
2022-10-23T05:10:29.492Z,25.00
2022-10-23T05:11:29.494Z,29.30
2022-10-23T05:12:29.475Z,23.60
2022-10-23T05:13:29.471Z,25.30
2022-10-23T05:14:29.454Z,21.50
2022-10-23T05:15:29.511Z,19.30
2022-10-23T05:16:55.352Z,22.10
2022-10-23T05:17:29.432Z,24.20
2022-10-23T05:18:29.415Z,25.60
2022-10-23T05:19:29.407Z,21.60
2022-10-23T05:20:29.394Z,17.80
2022-10-23T05:21:29.401Z,25.20
2022-10-23T05:22:29.370Z,24.70
2022-10-23T05:23:29.362Z,30.10
2022-10-23T05:24:29.353Z,27.60
2022-10-23T05:25:29.341Z,27.10
2022-10-23T05:26:29.345Z,23.70
2022-10-23T05:27:29.320Z,18.80
2022-10-23T05:28:29.314Z,31.80
2022-10-23T05:29:29.307Z,19.60
2022-10-23T05:30:29.292Z,23.20
2022-10-23T05:31:29.299Z,19.30
2022-10-23T05:32:29.273Z,19.80
2022-10-23T05:33:29.265Z,22.30
2022-10-23T05:34:29.254Z,26.90
2022-10-23T05:35:29.245Z,17.50
2022-10-23T05:36:29.248Z,26.90
2022-10-23T05:37:29.223Z,20.60
2022-10-23T05:38:29.213Z,33.50
2022-10-23T05:39:29.205Z,19.20
2022-10-23T05:40:29.279Z,24.10
2022-10-23T05:41:29.192Z,18.70
2022-10-23T05:42:29.174Z,24.00
2022-10-23T05:43:29.171Z,25.90
2022-10-23T05:44:29.150Z,25.10
2022-10-23T05:45:29.146Z,20.70
2022-10-23T05:46:29.147Z,27.00
2022-10-23T05:47:29.126Z,29.20
2022-10-23T05:48:36.261Z,22.10
2022-10-23T05:49:31.107Z,18.60
2022-10-23T05:50:29.099Z,34.90
2022-10-23T05:51:29.090Z,30.60
2022-10-23T05:52:29.074Z,25.00
2022-10-23T05:53:29.065Z,29.10
2022-10-23T05:54:29.053Z,25.00
2022-10-23T05:55:29.044Z,21.70
2022-10-23T05:56:29.045Z,21.00
2022-10-23T05:57:29.020Z,25.50
2022-10-23T05:58:29.012Z,20.20
2022-10-23T05:59:29.002Z,20.90
2022-10-23T06:00:29.086Z,23.40
2022-10-23T06:01:29.110Z,29.20
2022-10-23T06:02:29.099Z,19.80
2022-10-23T06:03:28.962Z,21.30
2022-10-23T06:04:28.954Z,24.10
2022-10-23T06:05:28.981Z,22.10
2022-10-23T06:06:28.943Z,28.40
2022-10-23T06:07:31.222Z,25.80
2022-10-23T06:08:28.910Z,21.10
2022-10-23T06:09:28.903Z,18.50
2022-10-23T06:10:28.962Z,26.00
2022-10-23T06:11:28.896Z,24.00
2022-10-23T06:12:28.870Z,22.40
2022-10-23T06:13:28.860Z,17.60
2022-10-23T06:14:28.850Z,24.20
2022-10-23T06:15:28.839Z,20.80
2022-10-23T06:16:28.848Z,27.30
2022-10-23T06:17:28.825Z,21.40
2022-10-23T06:18:28.811Z,21.60
2022-10-23T06:19:28.803Z,28.70
2022-10-23T06:20:28.941Z,22.20
2022-10-23T06:21:28.788Z,22.20
2022-10-23T06:22:28.776Z,20.30
2022-10-23T06:23:28.761Z,26.90
2022-10-23T06:24:28.751Z,25.70
2022-10-23T06:25:28.741Z,24.20
2022-10-23T06:26:28.738Z,16.60
2022-10-23T06:27:28.725Z,21.10
2022-10-23T06:28:28.711Z,24.00
2022-10-23T06:29:28.700Z,19.00
2022-10-23T06:30:28.904Z,20.20
2022-10-23T06:31:28.695Z,20.90
2022-10-23T06:32:28.671Z,20.40
2022-10-23T06:33:28.655Z,22.10
2022-10-23T06:34:28.652Z,19.50
2022-10-23T06:35:28.646Z,20.40
2022-10-23T06:36:28.642Z,21.50
2022-10-23T06:37:28.625Z,23.70
2022-10-23T06:38:28.620Z,20.60
2022-10-23T06:39:31.240Z,18.20
2022-10-23T06:40:28.683Z,22.20
2022-10-23T06:41:28.590Z,21.90
2022-10-23T06:42:28.574Z,19.00
2022-10-23T06:43:28.564Z,21.40
2022-10-23T06:44:28.547Z,20.30
2022-10-23T06:45:28.538Z,16.30
2022-10-23T06:46:28.539Z,20.50
2022-10-23T06:47:28.520Z,18.60
2022-10-23T06:48:28.516Z,18.10
2022-10-23T06:49:28.498Z,21.20
2022-10-23T06:50:28.551Z,18.30
2022-10-23T06:51:28.495Z,16.00
2022-10-23T06:52:45.977Z,19.20
2022-10-23T06:53:30.468Z,13.70
2022-10-23T06:54:28.449Z,19.40
2022-10-23T06:55:28.557Z,17.40
2022-10-23T06:56:28.443Z,23.40
2022-10-23T06:57:28.422Z,21.50
2022-10-23T06:58:28.407Z,19.90
2022-10-23T06:59:28.394Z,22.80
2022-10-23T07:00:28.466Z,19.30
2022-10-23T07:01:28.607Z,20.00
2022-10-23T07:02:28.366Z,25.30
2022-10-23T07:03:28.357Z,23.20
2022-10-23T07:04:28.342Z,19.60
2022-10-23T07:05:28.334Z,18.60
2022-10-23T07:06:28.336Z,15.70
2022-10-23T07:07:28.316Z,14.50
2022-10-23T07:08:28.300Z,21.20
2022-10-23T07:09:28.304Z,16.10
2022-10-23T07:10:28.281Z,15.30
2022-10-23T07:11:29.294Z,21.20
2022-10-23T07:12:28.263Z,23.10
2022-10-23T07:13:28.250Z,18.70
2022-10-23T07:14:28.242Z,23.70
2022-10-23T07:15:28.235Z,18.50
2022-10-23T07:16:28.247Z,17.30
2022-10-23T07:17:28.208Z,17.00
2022-10-23T07:18:28.242Z,15.50
2022-10-23T07:19:28.200Z,16.10
2022-10-23T07:20:28.183Z,15.90
2022-10-23T07:21:28.184Z,19.90
2022-10-23T07:22:28.163Z,17.70
2022-10-23T07:23:28.156Z,19.30
2022-10-23T07:24:28.142Z,12.50
2022-10-23T07:25:28.132Z,15.00
2022-10-23T07:26:28.135Z,24.20
2022-10-23T07:27:28.115Z,16.40
2022-10-23T07:28:28.105Z,18.40
2022-10-23T07:29:28.087Z,19.00
2022-10-23T07:30:28.086Z,25.80
2022-10-23T07:31:28.425Z,16.90
2022-10-23T07:32:28.064Z,11.70
2022-10-23T07:33:28.053Z,14.20
2022-10-23T07:34:28.044Z,10.90
2022-10-23T07:35:28.030Z,11.60
2022-10-23T07:36:28.032Z,15.70
2022-10-23T07:37:28.012Z,17.30
2022-10-23T07:38:27.997Z,15.90
2022-10-23T07:39:27.994Z,13.80
2022-10-23T07:40:27.978Z,12.60
2022-10-23T07:41:27.978Z,17.60
2022-10-23T07:42:27.951Z,17.20
2022-10-23T07:43:28.023Z,13.50
2022-10-23T07:44:27.965Z,11.80
2022-10-23T07:45:27.927Z,11.50
2022-10-23T07:46:27.932Z,14.00
2022-10-23T07:47:27.907Z,16.20
2022-10-23T07:48:27.898Z,9.50
2022-10-23T07:49:27.882Z,12.30
2022-10-23T07:50:27.873Z,15.50
2022-10-23T07:51:27.875Z,13.90
2022-10-23T07:52:31.951Z,16.00
2022-10-23T07:53:28.843Z,14.10
2022-10-23T07:54:28.273Z,14.00
2022-10-23T07:55:28.819Z,12.70
2022-10-23T07:56:27.825Z,15.80
2022-10-23T07:57:27.826Z,13.90
2022-10-23T07:58:27.794Z,13.80
2022-10-23T07:59:27.788Z,11.80
2022-10-23T08:00:27.903Z,11.90
2022-10-23T08:01:27.822Z,14.80
2022-10-23T08:02:27.849Z,10.30
2022-10-23T08:03:27.742Z,17.60
2022-10-23T08:04:27.733Z,13.30
2022-10-23T08:05:27.723Z,12.80
2022-10-23T08:06:27.722Z,13.40
2022-10-23T08:07:27.710Z,8.80
2022-10-23T08:08:27.693Z,15.10
2022-10-23T08:09:27.685Z,11.60
2022-10-23T08:10:27.664Z,12.00
2022-10-23T08:11:28.672Z,12.60
2022-10-23T08:12:27.653Z,14.00
2022-10-23T08:13:27.641Z,11.50
2022-10-23T08:14:27.631Z,16.50
2022-10-23T08:15:27.618Z,13.40
2022-10-23T08:16:27.621Z,13.90
2022-10-23T08:17:28.328Z,19.70
2022-10-23T08:18:28.592Z,15.40
2022-10-23T08:19:27.587Z,23.10
2022-10-23T08:20:27.578Z,18.80
2022-10-23T08:21:27.579Z,19.20
2022-10-23T08:22:27.554Z,20.20
2022-10-23T08:23:27.541Z,10.50
2022-10-23T08:24:27.529Z,10.20
2022-10-23T08:25:27.565Z,14.10
2022-10-23T08:26:27.534Z,22.00
2022-10-23T08:27:27.506Z,13.10
2022-10-23T08:28:27.491Z,11.30
2022-10-23T08:29:27.477Z,13.00
2022-10-23T08:30:27.470Z,15.90
2022-10-23T08:31:27.497Z,14.10
2022-10-23T08:32:27.476Z,8.90
2022-10-23T08:33:27.443Z,15.00
2022-10-23T08:34:27.429Z,10.80
2022-10-23T08:35:27.416Z,14.90
2022-10-23T08:36:27.409Z,8.60
2022-10-23T08:37:27.411Z,10.60
2022-10-23T08:38:27.389Z,10.40
2022-10-23T08:39:27.379Z,9.30
2022-10-23T08:40:27.360Z,10.20
2022-10-23T08:41:27.357Z,10.10
2022-10-23T08:42:27.354Z,13.80
2022-10-23T08:43:27.334Z,12.50
2022-10-23T08:44:27.321Z,12.30
2022-10-23T08:45:27.314Z,12.40
2022-10-23T08:46:27.302Z,12.30
2022-10-23T08:47:27.308Z,12.60
2022-10-23T08:48:27.286Z,8.70
2022-10-23T08:49:27.278Z,9.10
2022-10-23T08:50:27.259Z,12.70
2022-10-23T08:51:27.252Z,12.80
2022-10-23T08:52:27.247Z,15.60
2022-10-23T08:53:28.228Z,11.40
2022-10-23T08:54:27.222Z,13.40
2022-10-23T08:55:27.208Z,13.60
2022-10-23T08:56:27.304Z,12.50
2022-10-23T08:57:27.202Z,16.00
2022-10-23T08:58:27.177Z,10.30
2022-10-23T08:59:27.166Z,14.10
2022-10-23T09:00:27.158Z,7.40
2022-10-23T09:01:27.272Z,13.50
2022-10-23T09:02:27.201Z,12.60
2022-10-23T09:03:27.129Z,12.70
2022-10-23T09:04:27.111Z,11.20
2022-10-23T09:05:27.102Z,11.80
2022-10-23T09:06:27.117Z,10.90
2022-10-23T09:07:27.100Z,12.70
2022-10-23T09:08:27.126Z,11.00
2022-10-23T09:09:27.065Z,9.90
2022-10-23T09:10:27.052Z,9.70
2022-10-23T09:11:27.044Z,14.00
2022-10-23T09:12:27.042Z,15.30
2022-10-23T09:13:27.021Z,15.40
2022-10-23T09:14:27.012Z,14.20
2022-10-23T09:15:27.002Z,8.90
2022-10-23T09:16:26.993Z,13.30
2022-10-23T09:17:27.006Z,8.90
2022-10-23T09:18:26.969Z,12.00
2022-10-23T09:19:26.965Z,10.50
2022-10-23T09:20:26.950Z,9.40
2022-10-23T09:21:26.942Z,13.90
2022-10-23T09:22:26.943Z,9.90
2022-10-23T09:23:26.919Z,13.70
2022-10-23T09:24:26.913Z,12.00
2022-10-23T09:25:26.898Z,17.40
2022-10-23T09:26:26.890Z,13.50
2022-10-23T09:27:26.890Z,7.90
2022-10-23T09:28:26.884Z,13.50
2022-10-23T09:29:26.858Z,13.00
2022-10-23T09:30:26.850Z,9.70
2022-10-23T09:31:26.839Z,13.00
2022-10-23T09:32:26.843Z,10.40
2022-10-23T09:33:26.816Z,8.80
2022-10-23T09:34:26.815Z,12.00
2022-10-23T09:35:26.797Z,8.90
2022-10-23T09:36:26.791Z,11.90
2022-10-23T09:37:26.785Z,11.20
2022-10-23T09:38:26.770Z,13.40
2022-10-23T09:39:26.761Z,10.40
2022-10-23T09:40:26.750Z,12.50
2022-10-23T09:41:26.737Z,9.40
2022-10-23T09:42:26.736Z,11.10
2022-10-23T09:43:26.720Z,9.60
2022-10-23T09:44:26.709Z,12.60
2022-10-23T09:45:26.686Z,10.20
2022-10-23T09:46:27.692Z,8.30
2022-10-23T09:47:26.687Z,10.50
2022-10-23T09:48:26.667Z,11.40
2022-10-23T09:49:26.657Z,10.10
2022-10-23T09:50:26.651Z,14.40
2022-10-23T09:51:26.641Z,10.30
2022-10-23T09:52:26.637Z,13.50
2022-10-23T09:53:26.618Z,8.10
2022-10-23T09:54:26.606Z,7.50
2022-10-23T09:55:26.596Z,9.10
2022-10-23T09:56:26.618Z,10.40
2022-10-23T09:57:26.576Z,10.50
2022-10-23T09:58:26.578Z,14.10
2022-10-23T09:59:26.555Z,13.80
2022-10-23T10:00:26.555Z,13.00
2022-10-23T10:01:26.693Z,11.90
2022-10-23T10:02:26.529Z,8.60
2022-10-23T10:03:26.517Z,14.70
2022-10-23T10:04:26.510Z,10.20
2022-10-23T10:05:26.500Z,10.60
2022-10-23T10:06:26.563Z,8.00
2022-10-23T10:07:26.474Z,10.40
2022-10-23T10:08:26.470Z,15.10
2022-10-23T10:09:26.457Z,10.90
2022-10-23T10:10:26.452Z,11.60
2022-10-23T10:11:26.448Z,9.70
2022-10-23T10:12:26.430Z,11.40
2022-10-23T10:13:26.428Z,8.20
2022-10-23T10:14:26.410Z,12.60
2022-10-23T10:15:26.404Z,9.40
2022-10-23T10:16:26.443Z,11.10
2022-10-23T10:17:26.382Z,13.50
2022-10-23T10:18:26.367Z,11.60
2022-10-23T10:19:26.355Z,14.90
2022-10-23T10:20:26.347Z,8.50
2022-10-23T10:21:26.350Z,12.50
2022-10-23T10:22:26.324Z,7.40
2022-10-23T10:23:26.319Z,9.30
2022-10-23T10:24:26.306Z,13.00
2022-10-23T10:25:26.294Z,17.40
2022-10-23T10:26:26.322Z,12.00
2022-10-23T10:27:26.278Z,11.00
2022-10-23T10:28:26.269Z,11.30
2022-10-23T10:29:26.263Z,9.90
2022-10-23T10:30:26.251Z,9.80
2022-10-23T10:31:26.241Z,12.90
2022-10-23T10:32:26.242Z,14.20
2022-10-23T10:33:26.223Z,12.70
2022-10-23T10:34:26.214Z,7.20
2022-10-23T10:35:26.208Z,10.50
2022-10-23T10:37:27.183Z,9.20
2022-10-23T10:38:26.170Z,9.40
2022-10-23T10:39:26.168Z,9.40
2022-10-23T10:40:26.157Z,9.20
2022-10-23T10:41:26.143Z,8.30
2022-10-23T10:42:26.142Z,12.80
2022-10-23T10:43:26.127Z,9.50
2022-10-23T10:44:26.115Z,12.00
2022-10-23T10:45:26.105Z,12.30
2022-10-23T10:46:26.105Z,11.40
2022-10-23T10:47:26.100Z,11.00
2022-10-23T10:48:26.081Z,11.20
2022-10-23T10:49:26.076Z,12.60
2022-10-23T10:50:26.060Z,12.70
2022-10-23T10:51:26.050Z,13.50
2022-10-23T10:52:26.051Z,9.40
2022-10-23T10:53:26.028Z,8.00
2022-10-23T10:54:26.021Z,12.50
2022-10-23T10:55:26.011Z,12.00
2022-10-23T10:56:26.003Z,10.80
2022-10-23T10:57:26.003Z,13.30
2022-10-23T10:58:25.987Z,7.80
2022-10-23T10:59:25.975Z,12.60
2022-10-23T11:00:25.963Z,10.70
2022-10-23T11:01:26.086Z,14.90
2022-10-23T11:02:26.012Z,8.60
2022-10-23T11:03:25.933Z,10.20
2022-10-23T11:04:25.923Z,10.70
2022-10-23T11:05:25.907Z,10.70
2022-10-23T11:06:25.900Z,10.20
2022-10-23T11:07:25.906Z,10.90
2022-10-23T11:08:25.879Z,10.20
2022-10-23T11:09:25.870Z,7.40
2022-10-23T11:10:25.860Z,12.40
2022-10-23T11:11:25.847Z,13.80
2022-10-23T11:12:25.854Z,10.10
2022-10-23T11:13:25.830Z,10.10
2022-10-23T11:14:25.824Z,15.20
2022-10-23T11:15:25.812Z,8.40
2022-10-23T11:16:57.711Z,11.80
2022-10-23T11:17:25.789Z,12.10
2022-10-23T11:18:25.780Z,11.90
2022-10-23T11:19:25.770Z,16.00
2022-10-23T11:20:25.764Z,11.90
2022-10-23T11:21:25.753Z,9.40
2022-10-23T11:22:25.748Z,11.50
2022-10-23T11:23:25.728Z,9.50
2022-10-23T11:24:25.715Z,12.80
2022-10-23T11:25:25.710Z,13.50
2022-10-23T11:26:25.697Z,10.10
2022-10-23T11:27:25.760Z,12.00
2022-10-23T11:28:25.678Z,12.20
2022-10-23T11:29:25.672Z,11.90
2022-10-23T11:30:25.660Z,9.10
2022-10-23T11:31:25.669Z,9.00
2022-10-23T11:32:25.719Z,10.00
2022-10-23T11:33:25.625Z,13.10
2022-10-23T11:34:25.619Z,9.20
2022-10-23T11:35:25.609Z,8.20
2022-10-23T11:36:25.599Z,9.70
2022-10-23T11:37:25.601Z,8.80
2022-10-23T11:38:25.580Z,9.30
2022-10-23T11:39:25.602Z,10.10
2022-10-23T11:40:25.557Z,9.40
2022-10-23T11:41:26.920Z,8.50
2022-10-23T11:42:25.550Z,10.10
2022-10-23T11:43:25.528Z,14.00
2022-10-23T11:44:25.520Z,10.80
2022-10-23T11:45:25.513Z,11.80
2022-10-23T11:46:25.506Z,9.00
2022-10-23T11:47:25.486Z,12.00
2022-10-23T11:48:25.478Z,16.30
2022-10-23T11:49:25.468Z,10.40
2022-10-23T11:50:25.458Z,8.50
2022-10-23T11:51:25.464Z,9.50
2022-10-23T11:52:25.439Z,14.70
2022-10-23T11:53:25.428Z,8.70
2022-10-23T11:54:25.417Z,10.40
2022-10-23T11:55:25.412Z,15.70
2022-10-23T11:56:25.423Z,7.10
2022-10-23T11:57:25.456Z,13.00
2022-10-23T11:58:25.381Z,8.20
2022-10-23T11:59:25.373Z,7.90
2022-10-23T12:00:25.359Z,7.80
2022-10-23T12:01:25.409Z,13.90
2022-10-23T12:02:25.610Z,11.30
2022-10-23T12:03:25.331Z,9.80
2022-10-23T12:04:25.321Z,10.60
2022-10-23T12:05:25.311Z,9.60
2022-10-23T12:06:25.302Z,7.60
2022-10-23T12:07:25.302Z,10.70
2022-10-23T12:08:25.282Z,10.20
2022-10-23T12:09:25.271Z,14.20
2022-10-23T12:10:25.260Z,10.10
2022-10-23T12:11:27.476Z,12.10
2022-10-23T12:12:25.248Z,10.90
2022-10-23T12:13:25.230Z,11.70
2022-10-23T12:14:25.218Z,13.40
2022-10-23T12:15:25.214Z,11.90
2022-10-23T12:16:25.199Z,8.50
2022-10-23T12:17:25.204Z,12.20
2022-10-23T12:18:25.178Z,12.00
2022-10-23T12:19:25.170Z,10.20
2022-10-23T12:20:25.170Z,10.10
2022-10-23T12:21:25.148Z,8.80
2022-10-23T12:22:25.215Z,10.20
2022-10-23T12:23:25.128Z,8.10
2022-10-23T12:24:25.120Z,10.60
2022-10-23T12:25:25.113Z,6.50
2022-10-23T12:26:25.098Z,8.20
2022-10-23T12:27:25.099Z,11.20
2022-10-23T12:28:25.083Z,9.60
2022-10-23T12:29:25.069Z,10.40
2022-10-23T12:30:25.059Z,11.20
2022-10-23T12:31:25.050Z,11.70
2022-10-23T12:32:25.054Z,12.70
2022-10-23T12:33:25.026Z,8.20
2022-10-23T12:34:25.015Z,12.10
2022-10-23T12:35:25.010Z,14.70
2022-10-23T12:36:25.001Z,13.20
2022-10-23T12:37:25.003Z,12.10
2022-10-23T12:38:24.980Z,11.90
2022-10-23T12:39:24.975Z,9.70
2022-10-23T12:40:24.963Z,8.70
2022-10-23T12:41:24.952Z,13.20
2022-10-23T12:42:24.955Z,9.50
2022-10-23T12:43:24.934Z,14.20
2022-10-23T12:44:24.921Z,14.30
2022-10-23T12:45:24.906Z,8.70
2022-10-23T12:46:24.902Z,13.60
2022-10-23T12:47:24.978Z,11.40
2022-10-23T12:48:24.888Z,11.30
2022-10-23T12:49:24.879Z,7.70
2022-10-23T12:50:24.857Z,13.80
2022-10-23T12:51:24.851Z,8.50
2022-10-23T12:52:24.861Z,10.80
2022-10-23T12:53:24.832Z,11.50
2022-10-23T12:54:24.835Z,15.20
2022-10-23T12:55:24.815Z,11.90
2022-10-23T12:56:24.799Z,9.90
2022-10-23T12:57:24.804Z,8.70
2022-10-23T12:58:24.786Z,7.40